sensor_id;sensor_type;location;lat;lon;timestamp;temperature;humidity
13211;DHT22;6670;51.53087800;7.23266500;2022-11-12T00:00:22;8.60;99.90
13211;DHT22;6670;51.53087800;7.23266500;2022-11-12T00:03:09;8.60;99.90
13211;DHT22;6670;51.53087800;7.23266500;2022-11-12T00:05:55;8.70;99.90
13211;DHT22;6670;51.53087800;7.23266500;2022-11-12T00:08:42;8.60;99.90
13211;DHT22;6670;51.53087800;7.23266500;2022-11-12T00:11:30;8.30;99.90
13211;DHT22;6670;51.53087800;7.23266500;2022-11-12T00:14:16;8.10;99.90
13211;DHT22;6670;51.53087800;7.23266500;2022-11-12T00:17:02;8.20;99.90
13211;DHT22;6670;51.53087800;7.23266500;2022-11-12T00:19:48;8.40;99.90
13211;DHT22;6670;51.53087800;7.23266500;2022-11-12T00:22:34;8.60;99.90
13211;DHT22;6670;51.53087800;7.23266500;2022-11-12T00:25:22;8.70;99.90
13211;DHT22;6670;51.53087800;7.23266500;2022-11-12T00:28:09;8.60;99.90
13211;DHT22;6670;51.53087800;7.23266500;2022-11-12T00:30:55;8.40;99.90
13211;DHT22;6670;51.53087800;7.23266500;2022-11-12T00:33:41;8.50;99.90
13211;DHT22;6670;51.53087800;7.23266500;2022-11-12T00:36:27;8.30;99.90
13211;DHT22;6670;51.53087800;7.23266500;2022-11-12T00:39:13;8.30;99.90
13211;DHT22;6670;51.53087800;7.23266500;2022-11-12T00:42:01;8.30;99.90
13211;DHT22;6670;51.53087800;7.23266500;2022-11-12T00:44:46;8.40;99.90
13211;DHT22;6670;51.53087800;7.23266500;2022-11-12T00:47:33;8.30;99.90
13211;DHT22;6670;51.53087800;7.23266500;2022-11-12T00:50:19;8.40;99.90
13211;DHT22;6670;51.53087800;7.23266500;2022-11-12T00:53:04;8.30;99.90
13211;DHT22;6670;51.53087800;7.23266500;2022-11-12T00:55:51;8.10;99.90
13211;DHT22;6670;51.53087800;7.23266500;2022-11-12T00:59:06;8.10;99.90
13211;DHT22;6670;51.53087800;7.23266500;2022-11-12T01:01:52;8.10;99.90
13211;DHT22;6670;51.53087800;7.23266500;2022-11-12T01:04:38;8.10;99.90
13211;DHT22;6670;51.53087800;7.23266500;2022-11-12T01:07:24;7.90;99.90
13211;DHT22;6670;51.53087800;7.23266500;2022-11-12T01:10:11;7.90;99.90
13211;DHT22;6670;51.53087800;7.23266500;2022-11-12T01:12:56;8.00;99.90
13211;DHT22;6670;51.53087800;7.23266500;2022-11-12T01:15:43;8.00;99.90
13211;DHT22;6670;51.53087800;7.23266500;2022-11-12T01:18:29;7.90;99.90
13211;DHT22;6670;51.53087800;7.23266500;2022-11-12T01:21:15;8.00;99.90
13211;DHT22;6670;51.53087800;7.23266500;2022-11-12T01:24:01;8.00;99.90
13211;DHT22;6670;51.53087800;7.23266500;2022-11-12T01:26:47;7.80;99.90
13211;DHT22;6670;51.53087800;7.23266500;2022-11-12T01:29:33;7.70;99.90
13211;DHT22;6670;51.53087800;7.23266500;2022-11-12T01:32:21;7.90;99.90
13211;DHT22;6670;51.53087800;7.23266500;2022-11-12T01:35:07;7.90;99.90
13211;DHT22;6670;51.53087800;7.23266500;2022-11-12T01:37:53;7.60;99.90
13211;DHT22;6670;51.53087800;7.23266500;2022-11-12T01:40:39;7.60;99.90
13211;DHT22;6670;51.53087800;7.23266500;2022-11-12T01:43:25;7.60;99.90
13211;DHT22;6670;51.53087800;7.23266500;2022-11-12T01:46:16;7.60;99.90
13211;DHT22;6670;51.53087800;7.23266500;2022-11-12T01:49:08;7.50;99.90
13211;DHT22;6670;51.53087800;7.23266500;2022-11-12T01:52:00;7.70;99.90
13211;DHT22;6670;51.53087800;7.23266500;2022-11-12T01:54:53;7.70;99.90
13211;DHT22;6670;51.53087800;7.23266500;2022-11-12T01:57:44;7.50;99.90
13211;DHT22;6670;51.53087800;7.23266500;2022-11-12T02:00:31;7.50;99.90
13211;DHT22;6670;51.53087800;7.23266500;2022-11-12T02:03:21;7.60;99.90
13211;DHT22;6670;51.53087800;7.23266500;2022-11-12T02:06:10;7.60;99.90
13211;DHT22;6670;51.53087800;7.23266500;2022-11-12T02:08:57;7.60;99.90
13211;DHT22;6670;51.53087800;7.23266500;2022-11-12T02:11:44;7.70;99.90
13211;DHT22;6670;51.53087800;7.23266500;2022-11-12T02:14:41;7.60;99.90
13211;DHT22;6670;51.53087800;7.23266500;2022-11-12T02:17:26;7.50;99.90
13211;DHT22;6670;51.53087800;7.23266500;2022-11-12T02:20:13;7.50;99.90
13211;DHT22;6670;51.53087800;7.23266500;2022-11-12T02:23:00;7.40;99.90
13211;DHT22;6670;51.53087800;7.23266500;2022-11-12T02:25:46;7.50;99.90
13211;DHT22;6670;51.53087800;7.23266500;2022-11-12T02:28:32;7.70;99.90
13211;DHT22;6670;51.53087800;7.23266500;2022-11-12T02:31:18;7.70;99.90
13211;DHT22;6670;51.53087800;7.23266500;2022-11-12T02:34:06;7.70;99.90
13211;DHT22;6670;51.53087800;7.23266500;2022-11-12T02:36:52;7.70;99.90
13211;DHT22;6670;51.53087800;7.23266500;2022-11-12T02:39:39;7.60;99.90
13211;DHT22;6670;51.53087800;7.23266500;2022-11-12T02:42:48;7.70;99.90
13211;DHT22;6670;51.53087800;7.23266500;2022-11-12T02:45:35;7.70;99.90
13211;DHT22;6670;51.53087800;7.23266500;2022-11-12T02:48:21;7.60;99.90
13211;DHT22;6670;51.53087800;7.23266500;2022-11-12T02:51:07;7.60;99.90
13211;DHT22;6670;51.53087800;7.23266500;2022-11-12T02:53:53;7.50;99.90
13211;DHT22;6670;51.53087800;7.23266500;2022-11-12T02:56:40;7.60;99.90
13211;DHT22;6670;51.53087800;7.23266500;2022-11-12T02:59:26;7.60;99.90
13211;DHT22;6670;51.53087800;7.23266500;2022-11-12T03:02:12;7.70;99.90
13211;DHT22;6670;51.53087800;7.23266500;2022-11-12T03:04:58;7.80;99.90
13211;DHT22;6670;51.53087800;7.23266500;2022-11-12T03:07:44;7.70;99.90
13211;DHT22;6670;51.53087800;7.23266500;2022-11-12T03:10:30;7.80;99.90
13211;DHT22;6670;51.53087800;7.23266500;2022-11-12T03:13:18;7.90;99.90
13211;DHT22;6670;51.53087800;7.23266500;2022-11-12T03:16:15;8.00;99.90
13211;DHT22;6670;51.53087800;7.23266500;2022-11-12T03:19:01;8.00;99.90
13211;DHT22;6670;51.53087800;7.23266500;2022-11-12T03:21:47;8.20;99.90
13211;DHT22;6670;51.53087800;7.23266500;2022-11-12T03:24:33;8.30;99.90
13211;DHT22;6670;51.53087800;7.23266500;2022-11-12T03:27:19;8.50;99.90
13211;DHT22;6670;51.53087800;7.23266500;2022-11-12T03:30:07;8.30;99.90
13211;DHT22;6670;51.53087800;7.23266500;2022-11-12T03:32:53;8.10;99.90
13211;DHT22;6670;51.53087800;7.23266500;2022-11-12T03:35:40;8.10;99.90
13211;DHT22;6670;51.53087800;7.23266500;2022-11-12T03:38:26;8.30;99.90
13211;DHT22;6670;51.53087800;7.23266500;2022-11-12T03:41:12;8.20;99.90
13211;DHT22;6670;51.53087800;7.23266500;2022-11-12T03:43:58;8.00;99.90
13211;DHT22;6670;51.53087800;7.23266500;2022-11-12T03:46:45;7.90;99.90
13211;DHT22;6670;51.53087800;7.23266500;2022-11-12T03:49:31;8.00;99.90
13211;DHT22;6670;51.53087800;7.23266500;2022-11-12T03:55:46;8.80;99.90
13211;DHT22;6670;51.53087800;7.23266500;2022-11-12T03:58:32;9.10;99.90
13211;DHT22;6670;51.53087800;7.23266500;2022-11-12T04:01:18;9.20;99.90
13211;DHT22;6670;51.53087800;7.23266500;2022-11-12T04:04:06;9.30;99.90
13211;DHT22;6670;51.53087800;7.23266500;2022-11-12T04:06:51;9.50;99.90
13211;DHT22;6670;51.53087800;7.23266500;2022-11-12T04:09:55;9.40;99.90
13211;DHT22;6670;51.53087800;7.23266500;2022-11-12T04:12:41;9.10;99.90
13211;DHT22;6670;51.53087800;7.23266500;2022-11-12T04:15:49;8.90;99.90
13211;DHT22;6670;51.53087800;7.23266500;2022-11-12T04:18:57;8.70;99.90
13211;DHT22;6670;51.53087800;7.23266500;2022-11-12T04:22:05;8.70;99.90
13211;DHT22;6670;51.53087800;7.23266500;2022-11-12T04:24:52;8.70;99.90
13211;DHT22;6670;51.53087800;7.23266500;2022-11-12T04:27:55;8.60;99.90
13211;DHT22;6670;51.53087800;7.23266500;2022-11-12T04:30:41;8.50;99.90
13211;DHT22;6670;51.53087800;7.23266500;2022-11-12T04:33:26;8.40;99.90
13211;DHT22;6670;51.53087800;7.23266500;2022-11-12T04:36:12;8.50;99.90
13211;DHT22;6670;51.53087800;7.23266500;2022-11-12T04:39:00;8.40;99.90
13211;DHT22;6670;51.53087800;7.23266500;2022-11-12T04:41:45;8.30;99.90
13211;DHT22;6670;51.53087800;7.23266500;2022-11-12T04:44:49;8.10;99.90
13211;DHT22;6670;51.53087800;7.23266500;2022-11-12T04:47:50;8.10;99.90
13211;DHT22;6670;51.53087800;7.23266500;2022-11-12T04:50:36;8.30;99.90
13211;DHT22;6670;51.53087800;7.23266500;2022-11-12T04:53:22;8.10;99.90
13211;DHT22;6670;51.53087800;7.23266500;2022-11-12T04:56:10;8.10;99.90
13211;DHT22;6670;51.53087800;7.23266500;2022-11-12T04:58:56;8.00;99.90
13211;DHT22;6670;51.53087800;7.23266500;2022-11-12T05:01:42;8.00;99.90
13211;DHT22;6670;51.53087800;7.23266500;2022-11-12T05:04:28;7.90;99.90
13211;DHT22;6670;51.53087800;7.23266500;2022-11-12T05:07:14;8.00;99.90
13211;DHT22;6670;51.53087800;7.23266500;2022-11-12T05:10:00;8.20;99.90
13211;DHT22;6670;51.53087800;7.23266500;2022-11-12T05:12:48;8.40;99.90
13211;DHT22;6670;51.53087800;7.23266500;2022-11-12T05:15:34;8.70;99.90
13211;DHT22;6670;51.53087800;7.23266500;2022-11-12T05:18:20;8.60;99.90
13211;DHT22;6670;51.53087800;7.23266500;2022-11-12T05:21:06;8.70;99.90
13211;DHT22;6670;51.53087800;7.23266500;2022-11-12T05:24:06;8.60;99.90
13211;DHT22;6670;51.53087800;7.23266500;2022-11-12T05:26:52;8.30;99.90
13211;DHT22;6670;51.53087800;7.23266500;2022-11-12T05:29:40;8.10;99.90
13211;DHT22;6670;51.53087800;7.23266500;2022-11-12T05:32:26;7.90;99.90
13211;DHT22;6670;51.53087800;7.23266500;2022-11-12T05:35:12;7.70;99.90
13211;DHT22;6670;51.53087800;7.23266500;2022-11-12T05:37:58;7.50;99.90
13211;DHT22;6670;51.53087800;7.23266500;2022-11-12T05:40:44;7.50;99.90
13211;DHT22;6670;51.53087800;7.23266500;2022-11-12T05:43:30;7.50;99.90
13211;DHT22;6670;51.53087800;7.23266500;2022-11-12T05:46:17;7.50;99.90
13211;DHT22;6670;51.53087800;7.23266500;2022-11-12T05:49:03;7.40;99.90
13211;DHT22;6670;51.53087800;7.23266500;2022-11-12T05:51:49;7.40;99.90
13211;DHT22;6670;51.53087800;7.23266500;2022-11-12T05:54:36;7.40;99.90
13211;DHT22;6670;51.53087800;7.23266500;2022-11-12T05:57:22;7.30;99.90
13211;DHT22;6670;51.53087800;7.23266500;2022-11-12T06:00:09;7.30;99.90
13211;DHT22;6670;51.53087800;7.23266500;2022-11-12T06:02:57;7.40;99.90
13211;DHT22;6670;51.53087800;7.23266500;2022-11-12T06:05:43;7.30;99.90
13211;DHT22;6670;51.53087800;7.23266500;2022-11-12T06:08:29;7.30;99.90
13211;DHT22;6670;51.53087800;7.23266500;2022-11-12T06:11:15;7.30;99.90
13211;DHT22;6670;51.53087800;7.23266500;2022-11-12T06:14:02;7.20;99.90
13211;DHT22;6670;51.53087800;7.23266500;2022-11-12T06:16:48;7.30;99.90
13211;DHT22;6670;51.53087800;7.23266500;2022-11-12T06:19:36;7.20;99.90
13211;DHT22;6670;51.53087800;7.23266500;2022-11-12T06:22:22;7.10;99.90
13211;DHT22;6670;51.53087800;7.23266500;2022-11-12T06:25:08;7.10;99.90
13211;DHT22;6670;51.53087800;7.23266500;2022-11-12T06:27:53;7.20;99.90
13211;DHT22;6670;51.53087800;7.23266500;2022-11-12T06:30:39;7.20;99.90
13211;DHT22;6670;51.53087800;7.23266500;2022-11-12T06:33:25;7.30;99.90
13211;DHT22;6670;51.53087800;7.23266500;2022-11-12T06:36:17;7.20;99.90
13211;DHT22;6670;51.53087800;7.23266500;2022-11-12T06:39:04;7.10;99.90
13211;DHT22;6670;51.53087800;7.23266500;2022-11-12T06:41:50;7.10;99.90
13211;DHT22;6670;51.53087800;7.23266500;2022-11-12T06:44:35;7.20;99.90
13211;DHT22;6670;51.53087800;7.23266500;2022-11-12T06:47:22;7.00;99.90
13211;DHT22;6670;51.53087800;7.23266500;2022-11-12T06:50:09;7.00;99.90
13211;DHT22;6670;51.53087800;7.23266500;2022-11-12T06:52:58;7.00;99.90
13211;DHT22;6670;51.53087800;7.23266500;2022-11-12T06:55:44;7.30;99.90
13211;DHT22;6670;51.53087800;7.23266500;2022-11-12T06:58:31;7.90;99.90
13211;DHT22;6670;51.53087800;7.23266500;2022-11-12T07:01:17;8.30;99.90
13211;DHT22;6670;51.53087800;7.23266500;2022-11-12T07:04:03;8.50;99.90
13211;DHT22;6670;51.53087800;7.23266500;2022-11-12T07:06:49;8.50;99.90
13211;DHT22;6670;51.53087800;7.23266500;2022-11-12T07:09:36;8.60;99.90
13211;DHT22;6670;51.53087800;7.23266500;2022-11-12T07:12:22;8.40;99.90
13211;DHT22;6670;51.53087800;7.23266500;2022-11-12T07:15:09;8.40;99.90
13211;DHT22;6670;51.53087800;7.23266500;2022-11-12T07:17:55;8.50;99.90
13211;DHT22;6670;51.53087800;7.23266500;2022-11-12T07:20:41;8.90;99.90
13211;DHT22;6670;51.53087800;7.23266500;2022-11-12T07:23:29;9.10;99.90
13211;DHT22;6670;51.53087800;7.23266500;2022-11-12T07:26:19;9.20;99.90
13211;DHT22;6670;51.53087800;7.23266500;2022-11-12T07:29:05;8.60;99.90
13211;DHT22;6670;51.53087800;7.23266500;2022-11-12T07:31:52;8.30;99.90
13211;DHT22;6670;51.53087800;7.23266500;2022-11-12T07:34:38;8.00;99.90
13211;DHT22;6670;51.53087800;7.23266500;2022-11-12T07:37:23;8.10;99.90
13211;DHT22;6670;51.53087800;7.23266500;2022-11-12T07:40:10;8.30;99.90
13211;DHT22;6670;51.53087800;7.23266500;2022-11-12T07:42:59;8.00;99.90
13211;DHT22;6670;51.53087800;7.23266500;2022-11-12T07:45:45;7.90;99.90
13211;DHT22;6670;51.53087800;7.23266500;2022-11-12T07:48:37;8.20;99.90
13211;DHT22;6670;51.53087800;7.23266500;2022-11-12T07:51:25;8.40;99.90
13211;DHT22;6670;51.53087800;7.23266500;2022-11-12T07:54:12;8.50;99.90
13211;DHT22;6670;51.53087800;7.23266500;2022-11-12T07:56:58;8.60;99.90
13211;DHT22;6670;51.53087800;7.23266500;2022-11-12T08:00:11;8.50;99.90
13211;DHT22;6670;51.53087800;7.23266500;2022-11-12T08:02:58;8.50;99.90
13211;DHT22;6670;51.53087800;7.23266500;2022-11-12T08:05:45;8.60;99.90
13211;DHT22;6670;51.53087800;7.23266500;2022-11-12T08:08:34;8.80;99.90
13211;DHT22;6670;51.53087800;7.23266500;2022-11-12T08:11:23;8.90;99.90
13211;DHT22;6670;51.53087800;7.23266500;2022-11-12T08:14:09;9.10;99.90
13211;DHT22;6670;51.53087800;7.23266500;2022-11-12T08:16:59;9.30;99.90
13211;DHT22;6670;51.53087800;7.23266500;2022-11-12T08:19:45;9.30;99.90
13211;DHT22;6670;51.53087800;7.23266500;2022-11-12T08:22:31;9.40;99.90
13211;DHT22;6670;51.53087800;7.23266500;2022-11-12T08:25:17;9.50;99.90
13211;DHT22;6670;51.53087800;7.23266500;2022-11-12T08:28:03;9.50;99.90
13211;DHT22;6670;51.53087800;7.23266500;2022-11-12T08:30:50;9.90;99.90
13211;DHT22;6670;51.53087800;7.23266500;2022-11-12T08:33:38;10.00;99.90
13211;DHT22;6670;51.53087800;7.23266500;2022-11-12T08:36:24;10.20;99.90
13211;DHT22;6670;51.53087800;7.23266500;2022-11-12T08:39:10;10.40;99.90
13211;DHT22;6670;51.53087800;7.23266500;2022-11-12T08:41:56;10.50;99.90
13211;DHT22;6670;51.53087800;7.23266500;2022-11-12T08:44:42;10.60;99.90
13211;DHT22;6670;51.53087800;7.23266500;2022-11-12T08:47:28;10.60;99.90
13211;DHT22;6670;51.53087800;7.23266500;2022-11-12T08:50:16;10.80;99.90
13211;DHT22;6670;51.53087800;7.23266500;2022-11-12T08:53:02;10.90;99.90
13211;DHT22;6670;51.53087800;7.23266500;2022-11-12T08:55:51;11.00;99.90
13211;DHT22;6670;51.53087800;7.23266500;2022-11-12T08:58:38;11.10;99.90
13211;DHT22;6670;51.53087800;7.23266500;2022-11-12T09:01:24;11.10;99.90
13211;DHT22;6670;51.53087800;7.23266500;2022-11-12T09:04:14;11.30;99.90
13211;DHT22;6670;51.53087800;7.23266500;2022-11-12T09:07:02;11.40;99.90
13211;DHT22;6670;51.53087800;7.23266500;2022-11-12T09:09:48;11.60;99.90
13211;DHT22;6670;51.53087800;7.23266500;2022-11-12T09:12:34;11.90;99.90
13211;DHT22;6670;51.53087800;7.23266500;2022-11-12T09:15:20;11.90;99.90
13211;DHT22;6670;51.53087800;7.23266500;2022-11-12T09:18:10;12.00;99.90
13211;DHT22;6670;51.53087800;7.23266500;2022-11-12T09:21:01;12.30;99.90
13211;DHT22;6670;51.53087800;7.23266500;2022-11-12T09:23:48;12.30;99.90
13211;DHT22;6670;51.53087800;7.23266500;2022-11-12T09:26:34;12.40;99.90
13211;DHT22;6670;51.53087800;7.23266500;2022-11-12T09:29:20;12.50;99.90
13211;DHT22;6670;51.53087800;7.23266500;2022-11-12T09:32:06;12.60;99.90
13211;DHT22;6670;51.53087800;7.23266500;2022-11-12T09:34:52;12.60;99.90
13211;DHT22;6670;51.53087800;7.23266500;2022-11-12T09:37:48;12.50;99.90
13211;DHT22;6670;51.53087800;7.23266500;2022-11-12T09:41:00;12.70;99.90
13211;DHT22;6670;51.53087800;7.23266500;2022-11-12T09:43:55;12.70;99.90
13211;DHT22;6670;51.53087800;7.23266500;2022-11-12T09:46:47;12.80;99.90
13211;DHT22;6670;51.53087800;7.23266500;2022-11-12T09:49:37;12.90;99.90
13211;DHT22;6670;51.53087800;7.23266500;2022-11-12T09:52:26;12.90;99.90
13211;DHT22;6670;51.53087800;7.23266500;2022-11-12T09:55:16;13.00;99.90
13211;DHT22;6670;51.53087800;7.23266500;2022-11-12T09:58:09;13.00;99.90
13211;DHT22;6670;51.53087800;7.23266500;2022-11-12T10:00:59;13.00;99.90
13211;DHT22;6670;51.53087800;7.23266500;2022-11-12T10:03:53;13.10;99.90
13211;DHT22;6670;51.53087800;7.23266500;2022-11-12T10:10:43;13.50;99.50
13211;DHT22;6670;51.53087800;7.23266500;2022-11-12T10:13:40;13.70;98.30
13211;DHT22;6670;51.53087800;7.23266500;2022-11-12T10:17:03;13.90;98.10
13211;DHT22;6670;51.53087800;7.23266500;2022-11-12T10:20:01;14.20;96.70
13211;DHT22;6670;51.53087800;7.23266500;2022-11-12T10:23:01;14.50;96.30
13211;DHT22;6670;51.53087800;7.23266500;2022-11-12T10:25:50;14.90;95.80
13211;DHT22;6670;51.53087800;7.23266500;2022-11-12T10:28:42;15.10;94.70
13211;DHT22;6670;51.53087800;7.23266500;2022-11-12T10:31:49;15.50;94.40
13211;DHT22;6670;51.53087800;7.23266500;2022-11-12T10:34:35;15.70;94.20
13211;DHT22;6670;51.53087800;7.23266500;2022-11-12T10:37:24;16.00;94.10
13211;DHT22;6670;51.53087800;7.23266500;2022-11-12T10:40:32;16.30;93.10
13211;DHT22;6670;51.53087800;7.23266500;2022-11-12T10:43:23;16.60;92.50
13211;DHT22;6670;51.53087800;7.23266500;2022-11-12T10:46:18;16.90;92.10
13211;DHT22;6670;51.53087800;7.23266500;2022-11-12T10:49:10;17.30;91.20
13211;DHT22;6670;51.53087800;7.23266500;2022-11-12T10:52:19;17.70;89.70
13211;DHT22;6670;51.53087800;7.23266500;2022-11-12T10:55:16;17.70;88.20
13211;DHT22;6670;51.53087800;7.23266500;2022-11-12T10:58:20;18.10;83.10
13211;DHT22;6670;51.53087800;7.23266500;2022-11-12T11:01:14;18.10;83.30
13211;DHT22;6670;51.53087800;7.23266500;2022-11-12T11:04:02;18.50;82.50
13211;DHT22;6670;51.53087800;7.23266500;2022-11-12T11:06:57;18.40;79.20
13211;DHT22;6670;51.53087800;7.23266500;2022-11-12T11:09:51;18.40;79.00
13211;DHT22;6670;51.53087800;7.23266500;2022-11-12T11:12:40;18.80;78.70
13211;DHT22;6670;51.53087800;7.23266500;2022-11-12T11:15:26;18.70;76.90
13211;DHT22;6670;51.53087800;7.23266500;2022-11-12T11:18:14;18.90;77.00
13211;DHT22;6670;51.53087800;7.23266500;2022-11-12T11:21:12;18.40;78.70
13211;DHT22;6670;51.53087800;7.23266500;2022-11-12T11:24:15;18.60;78.20
13211;DHT22;6670;51.53087800;7.23266500;2022-11-12T11:27:07;18.60;78.90
13211;DHT22;6670;51.53087800;7.23266500;2022-11-12T11:30:04;18.70;78.00
13211;DHT22;6670;51.53087800;7.23266500;2022-11-12T11:36:20;19.10;75.10
13211;DHT22;6670;51.53087800;7.23266500;2022-11-12T11:39:16;19.00;74.10
13211;DHT22;6670;51.53087800;7.23266500;2022-11-12T11:42:16;19.30;73.40
13211;DHT22;6670;51.53087800;7.23266500;2022-11-12T11:45:15;19.60;71.60
13211;DHT22;6670;51.53087800;7.23266500;2022-11-12T11:48:10;19.60;71.50
13211;DHT22;6670;51.53087800;7.23266500;2022-11-12T11:51:01;19.60;70.30
13211;DHT22;6670;51.53087800;7.23266500;2022-11-12T11:53:57;19.80;69.30
13211;DHT22;6670;51.53087800;7.23266500;2022-11-12T11:56:48;19.90;68.20
13211;DHT22;6670;51.53087800;7.23266500;2022-11-12T11:59:42;20.20;67.90
13211;DHT22;6670;51.53087800;7.23266500;2022-11-12T12:03:04;20.20;67.50
13211;DHT22;6670;51.53087800;7.23266500;2022-11-12T12:06:05;20.30;66.40
13211;DHT22;6670;51.53087800;7.23266500;2022-11-12T12:09:06;20.20;65.50
13211;DHT22;6670;51.53087800;7.23266500;2022-11-12T12:12:00;20.30;65.90
13211;DHT22;6670;51.53087800;7.23266500;2022-11-12T12:14:56;20.30;65.80
13211;DHT22;6670;51.53087800;7.23266500;2022-11-12T12:17:51;20.50;65.90
13211;DHT22;6670;51.53087800;7.23266500;2022-11-12T12:20:52;20.70;66.00
13211;DHT22;6670;51.53087800;7.23266500;2022-11-12T12:23:42;21.30;65.90
13211;DHT22;6670;51.53087800;7.23266500;2022-11-12T12:26:36;21.60;65.00
13211;DHT22;6670;51.53087800;7.23266500;2022-11-12T12:29:26;21.30;65.10
13211;DHT22;6670;51.53087800;7.23266500;2022-11-12T12:32:18;21.50;64.70
13211;DHT22;6670;51.53087800;7.23266500;2022-11-12T12:35:13;21.60;64.50
13211;DHT22;6670;51.53087800;7.23266500;2022-11-12T12:38:10;21.30;64.30
13211;DHT22;6670;51.53087800;7.23266500;2022-11-12T12:41:03;21.40;63.90
13211;DHT22;6670;51.53087800;7.23266500;2022-11-12T12:43:57;21.20;63.80
13211;DHT22;6670;51.53087800;7.23266500;2022-11-12T12:46:52;21.30;63.70
13211;DHT22;6670;51.53087800;7.23266500;2022-11-12T12:49:47;21.30;63.70
13211;DHT22;6670;51.53087800;7.23266500;2022-11-12T12:53:03;21.20;63.40
13211;DHT22;6670;51.53087800;7.23266500;2022-11-12T12:55:51;21.20;63.20
13211;DHT22;6670;51.53087800;7.23266500;2022-11-12T12:58:41;21.80;62.30
13211;DHT22;6670;51.53087800;7.23266500;2022-11-12T13:01:35;21.60;61.90
13211;DHT22;6670;51.53087800;7.23266500;2022-11-12T13:04:50;22.00;60.50
13211;DHT22;6670;51.53087800;7.23266500;2022-11-12T13:07:40;22.50;59.40
13211;DHT22;6670;51.53087800;7.23266500;2022-11-12T13:10:49;22.40;58.80
13211;DHT22;6670;51.53087800;7.23266500;2022-11-12T13:13:36;22.90;57.80
13211;DHT22;6670;51.53087800;7.23266500;2022-11-12T13:16:58;22.60;57.90
13211;DHT22;6670;51.53087800;7.23266500;2022-11-12T13:19:46;22.30;57.40
13211;DHT22;6670;51.53087800;7.23266500;2022-11-12T13:22:55;22.50;56.00
13211;DHT22;6670;51.53087800;7.23266500;2022-11-12T13:25:42;22.50;56.80
13211;DHT22;6670;51.53087800;7.23266500;2022-11-12T13:28:31;22.80;56.90
13211;DHT22;6670;51.53087800;7.23266500;2022-11-12T13:31:25;22.80;56.20
13211;DHT22;6670;51.53087800;7.23266500;2022-11-12T13:34:17;23.10;55.60
13211;DHT22;6670;51.53087800;7.23266500;2022-11-12T13:37:04;23.30;54.40
13211;DHT22;6670;51.53087800;7.23266500;2022-11-12T13:39:52;23.50;53.20
13211;DHT22;6670;51.53087800;7.23266500;2022-11-12T13:42:38;23.40;53.40
13211;DHT22;6670;51.53087800;7.23266500;2022-11-12T13:45:39;23.60;53.10
13211;DHT22;6670;51.53087800;7.23266500;2022-11-12T13:48:28;23.50;52.20
13211;DHT22;6670;51.53087800;7.23266500;2022-11-12T13:51:17;23.40;51.80
13211;DHT22;6670;51.53087800;7.23266500;2022-11-12T13:54:26;23.70;51.90
13211;DHT22;6670;51.53087800;7.23266500;2022-11-12T13:57:30;23.80;50.80
13211;DHT22;6670;51.53087800;7.23266500;2022-11-12T14:00:22;23.30;51.50
13211;DHT22;6670;51.53087800;7.23266500;2022-11-12T14:03:16;23.80;51.40
13211;DHT22;6670;51.53087800;7.23266500;2022-11-12T14:06:05;23.90;50.70
13211;DHT22;6670;51.53087800;7.23266500;2022-11-12T14:09:11;24.40;50.10
13211;DHT22;6670;51.53087800;7.23266500;2022-11-12T14:12:32;24.20;49.70
13211;DHT22;6670;51.53087800;7.23266500;2022-11-12T14:15:45;24.20;49.90
13211;DHT22;6670;51.53087800;7.23266500;2022-11-12T14:18:45;24.50;50.10
13211;DHT22;6670;51.53087800;7.23266500;2022-11-12T14:21:37;24.40;50.00
13211;DHT22;6670;51.53087800;7.23266500;2022-11-12T14:24:23;24.50;50.10
13211;DHT22;6670;51.53087800;7.23266500;2022-11-12T14:27:34;24.50;50.30
13211;DHT22;6670;51.53087800;7.23266500;2022-11-12T14:30:22;24.20;50.60
13211;DHT22;6670;51.53087800;7.23266500;2022-11-12T14:33:09;24.50;51.10
13211;DHT22;6670;51.53087800;7.23266500;2022-11-12T14:36:09;24.20;51.40
13211;DHT22;6670;51.53087800;7.23266500;2022-11-12T14:38:57;24.30;51.10
13211;DHT22;6670;51.53087800;7.23266500;2022-11-12T14:41:44;24.10;52.30
13211;DHT22;6670;51.53087800;7.23266500;2022-11-12T14:44:52;23.90;52.60
13211;DHT22;6670;51.53087800;7.23266500;2022-11-12T14:47:40;23.40;53.60
13211;DHT22;6670;51.53087800;7.23266500;2022-11-12T14:50:53;22.80;53.80
13211;DHT22;6670;51.53087800;7.23266500;2022-11-12T14:53:46;22.40;54.60
13211;DHT22;6670;51.53087800;7.23266500;2022-11-12T14:56:37;21.90;55.90
13211;DHT22;6670;51.53087800;7.23266500;2022-11-12T14:59:25;21.40;57.00
13211;DHT22;6670;51.53087800;7.23266500;2022-11-12T15:02:14;20.80;58.30
13211;DHT22;6670;51.53087800;7.23266500;2022-11-12T15:05:10;20.50;59.30
13211;DHT22;6670;51.53087800;7.23266500;2022-11-12T15:07:59;19.70;61.00
13211;DHT22;6670;51.53087800;7.23266500;2022-11-12T15:11:13;19.40;62.70
13211;DHT22;6670;51.53087800;7.23266500;2022-11-12T15:14:02;19.20;64.30
13211;DHT22;6670;51.53087800;7.23266500;2022-11-12T15:16:48;18.80;65.60
13211;DHT22;6670;51.53087800;7.23266500;2022-11-12T15:19:40;18.50;67.60
13211;DHT22;6670;51.53087800;7.23266500;2022-11-12T15:22:31;18.30;70.00
13211;DHT22;6670;51.53087800;7.23266500;2022-11-12T15:25:20;18.10;72.10
13211;DHT22;6670;51.53087800;7.23266500;2022-11-12T15:28:21;17.90;73.40
13211;DHT22;6670;51.53087800;7.23266500;2022-11-12T15:31:16;17.70;74.90
13211;DHT22;6670;51.53087800;7.23266500;2022-11-12T15:34:30;17.50;77.40
13211;DHT22;6670;51.53087800;7.23266500;2022-11-12T15:37:24;17.20;80.70
13211;DHT22;6670;51.53087800;7.23266500;2022-11-12T15:40:14;17.00;85.00
13211;DHT22;6670;51.53087800;7.23266500;2022-11-12T15:43:02;16.90;86.50
13211;DHT22;6670;51.53087800;7.23266500;2022-11-12T15:45:49;16.80;89.40
13211;DHT22;6670;51.53087800;7.23266500;2022-11-12T15:48:35;16.70;88.60
13211;DHT22;6670;51.53087800;7.23266500;2022-11-12T15:51:22;16.40;89.80
13211;DHT22;6670;51.53087800;7.23266500;2022-11-12T15:54:09;16.30;90.60
13211;DHT22;6670;51.53087800;7.23266500;2022-11-12T15:56:55;16.30;90.90
13211;DHT22;6670;51.53087800;7.23266500;2022-11-12T15:59:54;16.20;91.60